Hazel Park, Michigan
Current Conditions -  °F | °C
As of 9:23 AM on Saturday 22 Nov 2014 (Local Time) from KDET Reporting Station
Overcast Overcast  
Wind Chill: 25°   Ceiling: 900
Heat Index: 34°   Visibility: 4mi
Dew Point: 29°   Wind: 12mph
Humidity: 82%   Direction: 220°SW
Pressure: 30.11"   Gusts: NA
Location:  42.46°N, 83.1°W
Report Text: KDET 221423Z 22010KT 4SM OVC009 01/M02 A3011 RMK AO2 RAB01E02FZRAB02E17 CIG 008V012 P0001 I1001 T00111017
Loading
Personal Weather Stations






























Interactive Weather Map New forecast layout! Learn more

10-Day Weather Forecast

Advertisements
Track Severe Weather on mobile